createdAt,value
2022-08-22T00:02:31.545Z,2.30
2022-08-22T00:02:47.468Z,2.28
2022-08-22T00:05:14.910Z,2.65
2022-08-22T00:07:56.430Z,2.33
2022-08-22T00:10:35.051Z,2.33
2022-08-22T00:13:14.694Z,2.47
2022-08-22T00:15:52.806Z,2.47
2022-08-22T00:18:32.822Z,2.50
2022-08-22T00:21:09.757Z,2.60
2022-08-22T00:23:44.252Z,2.20
2022-08-22T00:26:26.881Z,2.70
2022-08-22T00:29:04.897Z,2.40
2022-08-22T00:31:51.843Z,2.58
2022-08-22T00:34:43.733Z,2.45
2022-08-22T00:37:43.162Z,2.72
2022-08-22T00:40:16.676Z,2.80
2022-08-22T00:42:45.234Z,2.70
2022-08-22T00:45:19.737Z,2.55
2022-08-22T00:48:08.869Z,2.67
2022-08-22T00:51:00.807Z,2.80
2022-08-22T00:53:44.866Z,3.20
2022-08-22T00:56:47.891Z,4.10
2022-08-22T00:59:34.087Z,3.40
2022-08-22T01:02:09.132Z,3.10
2022-08-22T01:04:58.119Z,3.30
2022-08-22T01:07:38.065Z,2.35
2022-08-22T01:10:33.365Z,3.33
2022-08-22T01:13:10.932Z,3.15
2022-08-22T01:15:40.763Z,3.67
2022-08-22T01:18:45.819Z,3.28
2022-08-22T01:21:25.511Z,3.20
2022-08-22T01:23:56.612Z,3.03
2022-08-22T01:26:44.763Z,2.83
2022-08-22T01:29:31.500Z,3.35
2022-08-22T01:32:24.689Z,2.95
2022-08-22T01:35:10.552Z,2.78
2022-08-22T01:37:43.624Z,2.40
2022-08-22T01:40:23.274Z,2.20
2022-08-22T01:42:57.261Z,2.95
2022-08-22T01:45:46.151Z,2.45
2022-08-22T01:48:44.332Z,2.70
2022-08-22T01:51:26.182Z,3.03
2022-08-22T01:54:23.621Z,3.78
2022-08-22T01:56:51.233Z,3.33
2022-08-22T01:59:43.028Z,3.63
2022-08-22T02:02:32.228Z,3.60
2022-08-22T02:05:11.397Z,3.53
2022-08-22T02:08:00.648Z,4.13
2022-08-22T02:10:28.421Z,3.75
2022-08-22T02:13:25.401Z,3.20
2022-08-22T02:16:16.087Z,3.45
2022-08-22T02:19:14.563Z,3.20
2022-08-22T02:21:51.663Z,3.30
2022-08-22T02:24:35.147Z,3.05
2022-08-22T02:27:17.181Z,3.10
2022-08-22T02:30:08.891Z,3.20
2022-08-22T02:32:42.247Z,2.78
2022-08-22T02:35:12.662Z,2.63
2022-08-22T02:38:13.450Z,2.97
2022-08-22T02:41:00.312Z,2.90
2022-08-22T02:43:37.942Z,2.88
2022-08-22T02:46:23.142Z,3.30
2022-08-22T02:49:13.443Z,2.63
2022-08-22T02:52:14.996Z,3.00
2022-08-22T02:54:47.632Z,2.80
2022-08-22T02:57:32.218Z,3.00
2022-08-22T03:00:32.048Z,2.90
2022-08-22T03:03:29.202Z,3.13
2022-08-22T03:06:01.865Z,3.30
2022-08-22T03:08:59.202Z,3.20
2022-08-22T03:11:33.507Z,3.33
2022-08-22T03:14:06.329Z,3.20
2022-08-22T03:16:40.911Z,4.15
2022-08-22T03:19:19.040Z,4.18
2022-08-22T03:22:00.582Z,4.00
2022-08-22T03:24:39.632Z,3.92
2022-08-22T03:27:32.883Z,3.90
2022-08-22T03:30:06.944Z,3.47
2022-08-22T03:32:55.597Z,3.92
2022-08-22T03:35:51.178Z,3.60
2022-08-22T03:38:21.723Z,3.67
2022-08-22T03:41:26.780Z,3.70
2022-08-22T03:44:21.638Z,4.25
2022-08-22T03:47:15.232Z,3.83
2022-08-22T03:49:59.355Z,3.53
2022-08-22T03:53:18.436Z,4.63
2022-08-22T03:56:24.412Z,3.88
2022-08-22T03:58:54.731Z,3.97
2022-08-22T04:01:31.820Z,3.67
2022-08-22T04:04:11.588Z,4.47
2022-08-22T04:06:57.311Z,3.90
2022-08-22T04:09:47.893Z,4.55
2022-08-22T04:12:31.028Z,4.10
2022-08-22T04:14:58.532Z,3.55
2022-08-22T04:17:47.993Z,3.88
2022-08-22T04:20:21.392Z,4.25
2022-08-22T04:23:04.092Z,3.92
2022-08-22T04:25:40.888Z,4.57
2022-08-22T04:28:54.113Z,4.10
2022-08-22T04:31:33.791Z,4.72
2022-08-22T04:34:15.510Z,4.15
2022-08-22T04:36:54.712Z,4.05
2022-08-22T04:39:38.946Z,4.00
2022-08-22T04:42:48.382Z,3.97
2022-08-22T04:46:17.713Z,3.90
2022-08-22T04:48:53.521Z,4.45
2022-08-22T04:51:32.339Z,4.40
2022-08-22T04:54:24.173Z,4.78
2022-08-22T04:57:14.542Z,4.60
2022-08-22T04:59:43.557Z,5.00
2022-08-22T05:02:19.952Z,4.70
2022-08-22T05:04:53.202Z,5.32
2022-08-22T05:07:24.519Z,4.28
2022-08-22T05:09:59.262Z,4.47
2022-08-22T05:12:32.937Z,4.20
2022-08-22T05:15:05.927Z,4.70
2022-08-22T05:17:40.442Z,4.07
2022-08-22T05:20:12.281Z,4.15
2022-08-22T05:22:47.101Z,4.22
2022-08-22T05:25:20.182Z,3.92
2022-08-22T05:28:05.250Z,4.07
2022-08-22T05:30:35.097Z,3.85
2022-08-22T05:33:27.452Z,4.00
2022-08-22T05:36:01.889Z,4.32
2022-08-22T05:38:34.443Z,4.38
2022-08-22T05:41:09.391Z,4.05
2022-08-22T05:43:41.667Z,3.75
2022-08-22T05:46:27.079Z,4.95
2022-08-22T05:49:04.052Z,4.25
2022-08-22T05:52:07.672Z,4.63
2022-08-22T05:54:52.092Z,4.57
2022-08-22T05:58:01.282Z,4.07
2022-08-22T06:00:37.342Z,4.72
2022-08-22T06:03:20.122Z,4.35
2022-08-22T06:05:52.382Z,4.85
2022-08-22T06:08:27.612Z,4.78
2022-08-22T06:10:57.872Z,3.97
2022-08-22T06:13:41.390Z,4.25
2022-08-22T06:16:17.323Z,4.45
2022-08-22T06:18:46.402Z,4.07
2022-08-22T06:21:22.591Z,4.30
2022-08-22T06:23:56.817Z,3.90
2022-08-22T06:26:32.011Z,4.30
2022-08-22T06:29:01.358Z,3.65
2022-08-22T06:31:28.801Z,4.00
2022-08-22T06:34:15.722Z,3.47
2022-08-22T06:36:49.540Z,3.78
2022-08-22T06:39:24.522Z,4.10
2022-08-22T06:41:59.763Z,3.42
2022-08-22T06:44:39.714Z,3.92
2022-08-22T06:47:15.112Z,3.80
2022-08-22T06:49:45.834Z,3.75
2022-08-22T06:52:21.828Z,4.05
2022-08-22T06:54:57.612Z,3.40
2022-08-22T06:57:36.251Z,3.35
2022-08-22T07:00:15.464Z,3.13
2022-08-22T07:02:46.890Z,3.53
2022-08-22T07:05:20.311Z,4.22
2022-08-22T07:07:49.371Z,3.70
2022-08-22T07:10:18.462Z,3.22
2022-08-22T07:12:52.392Z,3.42
2022-08-22T07:17:54.935Z,4.22
2022-08-22T07:20:27.028Z,3.97
2022-08-22T07:22:57.842Z,4.45
2022-08-22T07:25:26.252Z,4.05
2022-08-22T07:28:05.606Z,4.18
2022-08-22T07:31:03.898Z,3.92
2022-08-22T07:33:44.403Z,3.78
2022-08-22T07:36:36.034Z,4.22
2022-08-22T07:39:25.802Z,4.10
2022-08-22T07:42:04.691Z,4.78
2022-08-22T07:44:45.378Z,5.03
2022-08-22T07:47:26.625Z,4.63
2022-08-22T07:49:59.142Z,4.75
2022-08-22T07:52:41.442Z,4.25
2022-08-22T07:55:24.238Z,4.95
2022-08-22T07:57:56.634Z,4.90
2022-08-22T08:00:25.029Z,5.70
2022-08-22T08:02:59.057Z,5.53
2022-08-22T08:05:30.303Z,5.68
2022-08-22T08:08:07.452Z,5.22
2022-08-22T08:10:39.791Z,6.22
2022-08-22T08:13:14.378Z,5.95
2022-08-22T08:15:45.508Z,5.63
2022-08-22T08:18:23.540Z,5.82
2022-08-22T08:20:54.912Z,6.25
2022-08-22T08:23:25.212Z,6.10
2022-08-22T08:26:03.642Z,5.60
2022-08-22T08:28:34.960Z,5.70
2022-08-22T08:31:07.808Z,5.82
2022-08-22T08:33:40.668Z,6.20
2022-08-22T08:36:23.772Z,5.50
2022-08-22T08:39:16.388Z,6.15
2022-08-22T08:42:17.908Z,4.90
2022-08-22T08:45:07.062Z,6.32
2022-08-22T08:47:55.675Z,5.90
2022-08-22T08:50:33.522Z,5.35
2022-08-22T08:53:16.799Z,5.32
2022-08-22T08:55:51.332Z,5.93
2022-08-22T08:58:45.087Z,5.75
2022-08-22T09:02:03.401Z,5.38
2022-08-22T09:04:30.910Z,5.35
2022-08-22T09:07:39.937Z,5.47
2022-08-22T09:10:32.144Z,5.45
2022-08-22T09:13:40.904Z,6.57
2022-08-22T09:16:24.782Z,5.60
2022-08-22T09:19:23.472Z,5.32
2022-08-22T09:22:27.592Z,5.90
2022-08-22T09:25:38.375Z,4.97
2022-08-22T09:28:22.570Z,6.05
2022-08-22T09:34:29.523Z,5.35
2022-08-22T09:37:13.855Z,4.53
2022-08-22T09:40:05.977Z,4.30
2022-08-22T09:42:55.392Z,3.75
2022-08-22T09:45:45.585Z,4.10
2022-08-22T09:48:43.696Z,4.35
2022-08-22T09:51:31.832Z,4.78
2022-08-22T09:54:34.368Z,4.20
2022-08-22T09:57:43.281Z,3.90
2022-08-22T10:00:30.621Z,4.22
2022-08-22T10:03:48.061Z,2.50
2022-08-22T10:06:22.931Z,3.42
2022-08-22T10:09:08.976Z,2.80
2022-08-22T10:11:42.300Z,2.50
2022-08-22T10:14:56.251Z,2.65
2022-08-22T10:18:10.377Z,3.83
2022-08-22T10:21:09.530Z,3.92
2022-08-22T10:23:51.842Z,4.13
2022-08-22T10:26:38.538Z,4.65
2022-08-22T10:29:09.347Z,4.30
2022-08-22T10:31:59.480Z,3.97
2022-08-22T10:34:36.940Z,3.88
2022-08-22T10:37:26.830Z,4.63
2022-08-22T10:39:57.111Z,3.92
2022-08-22T10:42:34.957Z,3.38
2022-08-22T10:45:15.528Z,4.50
2022-08-22T10:47:54.687Z,3.60
2022-08-22T10:50:55.042Z,3.35
2022-08-22T10:53:36.043Z,3.75
2022-08-22T10:56:27.356Z,3.72
2022-08-22T10:59:30.200Z,3.70
2022-08-22T11:02:30.659Z,3.05
2022-08-22T11:05:35.291Z,2.80
2022-08-22T11:08:24.674Z,3.08
2022-08-22T11:11:01.764Z,3.90
2022-08-22T11:14:07.942Z,2.65
2022-08-22T11:16:56.540Z,2.60
2022-08-22T11:19:36.022Z,3.78
2022-08-22T11:22:35.791Z,4.22
2022-08-22T11:25:36.165Z,4.00
2022-08-22T11:28:19.939Z,4.00
2022-08-22T11:31:31.734Z,3.72
2022-08-22T11:34:15.759Z,3.88
2022-08-22T11:36:53.328Z,3.65
2022-08-22T11:39:42.775Z,3.80
2022-08-22T11:42:31.225Z,3.58
2022-08-22T11:45:05.091Z,4.30
2022-08-22T11:50:33.462Z,4.20
2022-08-22T11:53:32.950Z,4.32
2022-08-22T11:56:12.518Z,3.63
2022-08-22T11:58:58.800Z,3.58
2022-08-22T12:01:42.146Z,3.70
2022-08-22T12:04:19.331Z,3.60
2022-08-22T12:07:09.152Z,3.50
2022-08-22T12:09:59.868Z,3.47
2022-08-22T12:12:55.467Z,3.35
2022-08-22T12:15:29.713Z,3.15
2022-08-22T12:18:36.123Z,3.42
2022-08-22T12:21:41.282Z,3.97
2022-08-22T12:24:19.031Z,3.03
2022-08-22T12:26:57.185Z,3.40
2022-08-22T12:29:40.077Z,3.42
2022-08-22T12:32:35.138Z,3.53
2022-08-22T12:35:36.947Z,3.15
2022-08-22T12:38:37.335Z,3.38
2022-08-22T12:41:34.960Z,2.38
2022-08-22T12:44:24.842Z,2.90
2022-08-22T12:46:56.124Z,2.63
2022-08-22T12:49:56.636Z,3.03
2022-08-22T12:52:34.456Z,2.17
2022-08-22T12:55:24.853Z,2.63
2022-08-22T12:58:02.961Z,2.15
2022-08-22T13:00:41.616Z,1.90
2022-08-22T13:03:22.261Z,1.70
2022-08-22T13:05:56.265Z,2.35
2022-08-22T13:08:27.568Z,2.33
2022-08-22T13:11:01.602Z,2.13
2022-08-22T13:13:38.644Z,1.98
2022-08-22T13:16:13.208Z,2.28
2022-08-22T13:18:53.917Z,2.50
2022-08-22T13:21:36.180Z,2.63
2022-08-22T13:24:10.335Z,2.92
2022-08-22T13:26:50.455Z,2.40
2022-08-22T13:29:27.492Z,2.20
2022-08-22T13:32:09.604Z,2.30
2022-08-22T13:34:44.062Z,2.40
2022-08-22T13:37:24.856Z,2.50
2022-08-22T13:39:59.798Z,2.60
2022-08-22T13:45:02.995Z,1.98
2022-08-22T13:47:39.726Z,1.83
2022-08-22T13:50:19.752Z,2.70
2022-08-22T13:52:58.268Z,2.20
2022-08-22T13:55:34.504Z,2.60
2022-08-22T13:58:36.018Z,2.38
2022-08-22T14:01:25.212Z,1.92
2022-08-22T14:04:28.318Z,2.40
2022-08-22T14:07:02.149Z,2.28
2022-08-22T14:09:35.452Z,2.60
2022-08-22T14:12:22.174Z,2.10
2022-08-22T14:14:57.571Z,2.80
2022-08-22T14:17:42.948Z,2.80
2022-08-22T14:20:32.462Z,2.70
2022-08-22T14:23:27.055Z,2.20
2022-08-22T14:25:57.285Z,2.90
2022-08-22T14:28:29.823Z,3.20
2022-08-22T14:31:07.571Z,2.45
2022-08-22T14:33:52.928Z,3.22
2022-08-22T14:36:45.031Z,3.00
2022-08-22T14:39:43.698Z,2.55
2022-08-22T14:42:25.351Z,2.83
2022-08-22T14:45:08.715Z,2.58
2022-08-22T14:47:55.553Z,3.40
2022-08-22T14:50:36.366Z,3.00
2022-08-22T14:55:41.131Z,2.85
2022-08-22T14:58:18.981Z,2.70
2022-08-22T15:00:57.790Z,3.38
2022-08-22T15:03:32.511Z,3.20
2022-08-22T15:06:05.212Z,3.30
2022-08-22T15:08:46.472Z,3.22
2022-08-22T15:11:22.872Z,3.28
2022-08-22T15:14:03.129Z,3.40
2022-08-22T15:16:51.641Z,3.20
2022-08-22T15:19:33.618Z,2.63
2022-08-22T15:22:27.501Z,2.53
2022-08-22T15:25:12.388Z,2.65
2022-08-22T15:27:50.198Z,2.42
2022-08-22T15:30:20.594Z,2.45
2022-08-22T15:32:49.371Z,2.25
2022-08-22T15:35:29.946Z,2.20
2022-08-22T15:38:08.269Z,2.42
2022-08-22T15:40:43.448Z,1.70
2022-08-22T15:43:24.246Z,1.80
2022-08-22T15:46:17.884Z,2.17
2022-08-22T15:48:59.699Z,2.03
2022-08-22T15:51:42.940Z,2.67
2022-08-22T15:54:24.717Z,2.03
2022-08-22T15:56:53.060Z,1.90
2022-08-22T15:59:31.338Z,2.20
2022-08-22T16:02:21.716Z,2.03
2022-08-22T16:05:10.699Z,1.58
2022-08-22T16:07:59.185Z,1.70
2022-08-22T16:10:26.701Z,1.63
2022-08-22T16:13:26.280Z,1.77
2022-08-22T16:16:18.675Z,1.50
2022-08-22T16:18:49.111Z,2.30
2022-08-22T16:21:22.759Z,3.13
2022-08-22T16:23:50.198Z,2.30
2022-08-22T16:26:19.828Z,2.22
2022-08-22T16:29:14.781Z,1.67
2022-08-22T16:31:48.543Z,1.90
2022-08-22T16:34:16.400Z,1.40
2022-08-22T16:37:11.249Z,1.80
2022-08-22T16:39:46.401Z,1.60
2022-08-22T16:42:23.080Z,1.70
2022-08-22T16:45:02.758Z,1.80
2022-08-22T16:47:33.049Z,1.70
2022-08-22T16:50:15.840Z,2.22
2022-08-22T16:53:03.734Z,2.10
2022-08-22T16:55:31.598Z,1.80
2022-08-22T16:58:07.168Z,2.40
2022-08-22T17:00:37.838Z,1.77
2022-08-22T17:03:06.129Z,1.80
2022-08-22T17:06:07.760Z,2.00
2022-08-22T17:09:03.116Z,1.77
2022-08-22T17:12:03.289Z,1.80
2022-08-22T17:14:33.596Z,1.70
2022-08-22T17:17:29.276Z,1.80
2022-08-22T17:20:21.489Z,2.00
2022-08-22T17:23:00.165Z,1.60
2022-08-22T17:25:34.959Z,2.17
2022-08-22T17:28:12.089Z,2.13
2022-08-22T17:31:05.650Z,2.05
2022-08-22T17:33:52.244Z,2.10
2022-08-22T17:36:57.250Z,2.60
2022-08-22T17:39:55.827Z,2.40
2022-08-22T17:42:38.591Z,2.72
2022-08-22T17:45:29.337Z,2.17
2022-08-22T17:48:08.099Z,2.25
2022-08-22T17:50:46.908Z,2.00
2022-08-22T17:53:37.805Z,19.40
2022-08-22T17:56:19.039Z,5.65
2022-08-22T17:59:05.089Z,4.97
2022-08-22T18:01:35.889Z,3.40
2022-08-22T18:04:09.520Z,2.80
2022-08-22T18:06:47.959Z,2.20
2022-08-22T18:09:40.208Z,2.05
2022-08-22T18:12:33.663Z,2.50
2022-08-22T18:15:20.140Z,2.85
2022-08-22T18:17:56.889Z,2.55
2022-08-22T18:20:37.875Z,2.88
2022-08-22T18:23:15.315Z,3.17
2022-08-22T18:26:15.609Z,3.05
2022-08-22T18:29:00.919Z,3.10
2022-08-22T18:31:38.452Z,2.70
2022-08-22T18:34:31.620Z,2.72
2022-08-22T18:37:34.860Z,2.40
2022-08-22T18:40:11.376Z,2.90
2022-08-22T18:43:18.129Z,2.58
2022-08-22T18:45:48.680Z,3.05
2022-08-22T18:48:28.270Z,3.00
2022-08-22T18:51:25.332Z,3.00
2022-08-22T18:54:05.268Z,3.00
2022-08-22T18:56:48.751Z,2.92
2022-08-22T18:59:29.120Z,3.55
2022-08-22T19:02:22.681Z,3.45
2022-08-22T19:05:02.955Z,2.80
2022-08-22T19:07:43.106Z,2.97
2022-08-22T19:10:38.437Z,3.38
2022-08-22T19:13:25.146Z,4.63
2022-08-22T19:16:20.870Z,5.60
2022-08-22T19:19:53.520Z,4.43
2022-08-22T19:22:35.982Z,3.92
2022-08-22T19:25:03.454Z,2.80
2022-08-22T19:27:34.040Z,3.55
2022-08-22T19:30:07.066Z,3.83
2022-08-22T19:32:46.681Z,3.50
2022-08-22T19:35:29.500Z,2.97
2022-08-22T19:37:59.821Z,3.47
2022-08-22T19:40:45.782Z,3.25
2022-08-22T19:43:31.786Z,3.40
2022-08-22T19:46:04.101Z,3.55
2022-08-22T19:48:50.441Z,3.33
2022-08-22T19:51:21.030Z,3.25
2022-08-22T19:54:20.483Z,3.65
2022-08-22T19:56:51.070Z,3.47
2022-08-22T20:00:00.151Z,3.50
2022-08-22T20:02:37.897Z,3.13
2022-08-22T20:05:32.019Z,3.20
2022-08-22T20:08:32.641Z,4.03
2022-08-22T20:11:15.120Z,3.38
2022-08-22T20:13:44.058Z,3.10
2022-08-22T20:16:16.202Z,3.60
2022-08-22T20:19:06.131Z,3.45
2022-08-22T20:21:58.100Z,4.15
2022-08-22T20:24:28.477Z,3.72
2022-08-22T20:27:13.242Z,3.78
2022-08-22T20:29:51.513Z,4.40
2022-08-22T20:32:22.020Z,3.38
2022-08-22T20:34:55.135Z,4.32
2022-08-22T20:38:05.268Z,3.60
2022-08-22T20:40:56.196Z,3.63
2022-08-22T20:43:36.928Z,3.97
2022-08-22T20:46:33.271Z,3.50
2022-08-22T20:49:01.820Z,3.50
2022-08-22T20:51:32.174Z,3.67
2022-08-22T20:54:10.455Z,4.05
2022-08-22T20:56:53.683Z,3.75
2022-08-22T20:59:28.030Z,3.83
2022-08-22T21:02:10.897Z,3.80
2022-08-22T21:04:49.050Z,3.80
2022-08-22T21:07:27.042Z,4.15
2022-08-22T21:10:20.299Z,3.83
2022-08-22T21:13:01.229Z,4.20
2022-08-22T21:15:47.351Z,3.38
2022-08-22T21:18:34.480Z,4.18
2022-08-22T21:21:12.752Z,4.20
2022-08-22T21:23:51.961Z,3.72
2022-08-22T21:26:24.770Z,4.28
2022-08-22T21:29:03.040Z,4.13
2022-08-22T21:31:36.949Z,4.10
2022-08-22T21:36:38.112Z,4.68
2022-08-22T21:39:15.109Z,4.53
2022-08-22T21:41:48.811Z,4.13
2022-08-22T21:44:31.307Z,4.32
2022-08-22T21:47:31.391Z,4.72
2022-08-22T21:50:08.273Z,5.03
2022-08-22T21:52:39.027Z,5.13
2022-08-22T21:55:34.802Z,5.07
2022-08-22T21:58:35.133Z,5.38
2022-08-22T22:01:25.003Z,4.95
2022-08-22T22:03:55.970Z,5.93
2022-08-22T22:06:23.411Z,5.57
2022-08-22T22:08:51.130Z,5.40
2022-08-22T22:11:18.950Z,5.28
2022-08-22T22:13:46.789Z,4.80
2022-08-22T22:16:20.391Z,5.40
2022-08-22T22:18:48.016Z,5.28
2022-08-22T22:21:15.450Z,5.45
2022-08-22T22:23:43.009Z,5.90
2022-08-22T22:26:10.830Z,6.03
2022-08-22T22:28:41.926Z,6.97
2022-08-22T22:31:10.002Z,6.40
2022-08-22T22:33:39.659Z,5.78
2022-08-22T22:36:16.169Z,6.28
2022-08-22T22:38:44.453Z,6.45
2022-08-22T22:41:12.360Z,6.18
2022-08-22T22:43:40.000Z,6.50
2022-08-22T22:46:07.559Z,6.50
2022-08-22T22:48:35.190Z,6.40
2022-08-22T22:51:10.320Z,6.88
2022-08-22T22:53:40.512Z,7.18
2022-08-22T22:56:21.477Z,6.80
2022-08-22T22:58:59.289Z,6.85
2022-08-22T23:01:31.218Z,6.82
2022-08-22T23:04:05.436Z,7.18
2022-08-22T23:06:34.787Z,7.10
2022-08-22T23:09:02.276Z,7.07
2022-08-22T23:15:18.069Z,6.95
2022-08-22T23:17:45.740Z,6.82
2022-08-22T23:20:13.962Z,7.03
2022-08-22T23:22:43.131Z,8.00
2022-08-22T23:25:10.781Z,6.80
2022-08-22T23:27:38.573Z,6.82
2022-08-22T23:30:11.248Z,6.72
2022-08-22T23:32:38.952Z,7.28
2022-08-22T23:35:07.401Z,6.93
2022-08-22T23:37:34.981Z,5.93
2022-08-22T23:40:03.586Z,6.28
2022-08-22T23:42:31.350Z,6.90
2022-08-22T23:44:58.880Z,7.90
2022-08-22T23:47:26.491Z,7.55
2022-08-22T23:49:54.001Z,8.25
2022-08-22T23:52:21.577Z,8.93
2022-08-22T23:54:51.593Z,8.05
2022-08-22T23:57:26.391Z,7.88
2022-08-22T23:59:57.991Z,8.60
